createdAt,value
2023-01-17T00:04:54.280Z,78.64
2023-01-17T00:10:05.971Z,78.93
2023-01-17T00:15:10.378Z,78.72
2023-01-17T00:20:52.077Z,78.78
2023-01-17T00:26:06.730Z,78.41
2023-01-17T00:31:12.197Z,78.44
2023-01-17T00:36:16.058Z,78.87
2023-01-17T00:41:20.459Z,78.76
2023-01-17T00:46:46.743Z,78.78
2023-01-17T00:52:09.118Z,78.74
2023-01-17T00:57:31.165Z,78.70
2023-01-17T01:02:57.005Z,78.93
2023-01-17T01:08:25.513Z,78.85
2023-01-17T01:13:51.148Z,78.68
2023-01-17T01:19:13.463Z,78.85
2023-01-17T01:24:36.044Z,78.83
2023-01-17T01:29:59.684Z,78.69
2023-01-17T01:35:06.872Z,78.70
2023-01-17T01:40:12.622Z,78.78
2023-01-17T01:45:27.946Z,78.62
2023-01-17T01:50:37.535Z,78.95
2023-01-17T01:55:51.222Z,79.15
2023-01-17T02:00:54.986Z,79.31
2023-01-17T02:06:27.998Z,78.76
2023-01-17T02:11:33.173Z,78.93
2023-01-17T02:17:01.970Z,79.11
2023-01-17T02:22:33.610Z,79.02
2023-01-17T02:27:59.760Z,79.13
2023-01-17T02:33:19.727Z,79.07
2023-01-17T02:38:32.317Z,79.19
2023-01-17T02:43:40.372Z,79.09
2023-01-17T02:48:46.999Z,79.28
2023-01-17T02:53:59.343Z,79.28
2023-01-17T02:59:16.586Z,79.14
2023-01-17T03:05:01.733Z,79.56
2023-01-17T03:10:14.585Z,79.40
2023-01-17T03:15:22.034Z,79.65
2023-01-17T03:20:28.438Z,79.58
2023-01-17T03:25:35.254Z,79.37
2023-01-17T03:30:41.987Z,79.74
2023-01-17T03:35:51.941Z,79.53
2023-01-17T03:40:56.848Z,79.17
2023-01-17T03:46:09.324Z,79.57
2023-01-17T03:51:17.088Z,79.92
2023-01-17T03:56:22.063Z,79.81
2023-01-17T04:01:28.970Z,79.70
2023-01-17T04:06:32.772Z,79.34
2023-01-17T04:11:40.075Z,79.41
2023-01-17T04:16:46.056Z,79.36
2023-01-17T04:21:49.862Z,79.83
2023-01-17T04:26:55.023Z,79.69
2023-01-17T04:31:59.626Z,79.65
2023-01-17T04:37:03.973Z,79.57
2023-01-17T04:42:08.526Z,79.41
2023-01-17T04:47:13.107Z,79.57
2023-01-17T04:52:23.684Z,79.27
2023-01-17T04:57:28.605Z,79.55
2023-01-17T05:02:33.284Z,79.15
2023-01-17T05:07:40.529Z,79.74
2023-01-17T05:12:45.443Z,79.51
2023-01-17T05:17:50.116Z,79.58
2023-01-17T05:22:58.402Z,79.89
2023-01-17T05:28:04.830Z,79.28
2023-01-17T05:33:10.927Z,79.26
2023-01-17T05:38:14.685Z,79.87
2023-01-17T05:43:19.871Z,79.70
2023-01-17T05:48:25.241Z,79.58
2023-01-17T05:53:30.788Z,79.40
2023-01-17T05:58:35.495Z,79.51
2023-01-17T06:03:50.090Z,79.48
2023-01-17T06:08:54.789Z,79.79
2023-01-17T06:13:58.898Z,79.37
2023-01-17T06:19:02.735Z,79.51
2023-01-17T06:24:08.280Z,79.34
2023-01-17T06:29:13.282Z,79.62
2023-01-17T06:34:19.087Z,79.40
2023-01-17T06:39:22.841Z,79.53
2023-01-17T06:44:27.030Z,79.23
2023-01-17T06:49:33.677Z,79.29
2023-01-17T06:54:37.517Z,79.41
2023-01-17T06:59:42.881Z,79.18
2023-01-17T07:04:48.419Z,79.49
2023-01-17T07:09:53.017Z,79.60
2023-01-17T07:14:56.976Z,79.13
2023-01-17T07:20:02.283Z,79.61
2023-01-17T07:25:08.048Z,79.05
2023-01-17T07:30:14.906Z,79.30
2023-01-17T07:35:19.683Z,79.47
2023-01-17T07:40:24.969Z,79.16
2023-01-17T07:45:29.048Z,79.51
2023-01-17T07:50:33.048Z,79.31
2023-01-17T07:55:37.170Z,79.43
2023-01-17T08:00:41.169Z,79.11
2023-01-17T08:05:58.612Z,79.33
2023-01-17T08:11:03.020Z,79.23
2023-01-17T08:16:09.977Z,79.41
2023-01-17T08:21:17.657Z,78.79
2023-01-17T08:26:23.735Z,79.15
2023-01-17T08:31:34.665Z,79.28
2023-01-17T08:36:43.494Z,79.41
2023-01-17T08:41:48.216Z,79.24
2023-01-17T08:46:52.785Z,79.57
2023-01-17T08:52:00.305Z,78.99
2023-01-17T08:57:07.405Z,79.33
2023-01-17T09:02:20.989Z,79.25
2023-01-17T09:07:25.406Z,79.36
2023-01-17T09:12:39.075Z,79.40
2023-01-17T09:17:43.593Z,79.40
2023-01-17T09:22:48.990Z,79.14
2023-01-17T09:27:56.627Z,79.21
2023-01-17T09:33:02.798Z,79.42
2023-01-17T09:38:08.887Z,79.57
2023-01-17T09:43:39.022Z,79.57
2023-01-17T09:48:47.494Z,79.40
2023-01-17T09:53:54.530Z,79.49
2023-01-17T09:59:10.138Z,79.41
2023-01-17T10:04:32.003Z,79.49
2023-01-17T10:09:50.263Z,79.92
2023-01-17T10:15:18.835Z,79.81
2023-01-17T10:20:48.127Z,79.51
2023-01-17T10:25:55.205Z,79.66
2023-01-17T10:31:19.442Z,80.14
2023-01-17T10:36:43.364Z,79.92
2023-01-17T10:42:00.563Z,79.70
2023-01-17T10:47:10.503Z,79.89
2023-01-17T10:52:24.527Z,79.71
2023-01-17T10:57:33.550Z,80.01
2023-01-17T11:02:52.264Z,79.71
2023-01-17T11:07:59.055Z,80.01
2023-01-17T11:13:05.577Z,80.25
2023-01-17T11:18:19.814Z,80.04
2023-01-17T11:23:36.992Z,79.98
2023-01-17T11:28:43.239Z,80.49
2023-01-17T11:33:57.139Z,80.52
2023-01-17T11:39:10.033Z,80.20
2023-01-17T11:44:27.151Z,80.84
2023-01-17T11:49:31.652Z,80.54
2023-01-17T11:54:41.174Z,80.69
2023-01-17T11:59:48.348Z,80.18
2023-01-17T12:05:13.105Z,80.58
2023-01-17T12:10:42.477Z,80.37
2023-01-17T12:16:29.221Z,80.67
2023-01-17T12:21:36.836Z,80.22
2023-01-17T12:27:08.321Z,80.57
2023-01-17T12:32:17.922Z,80.90
2023-01-17T12:37:38.589Z,80.50
2023-01-17T12:42:55.039Z,80.70
2023-01-17T12:48:08.361Z,80.72
2023-01-17T12:53:24.892Z,80.94
2023-01-17T12:58:43.730Z,80.68
2023-01-17T13:04:12.760Z,80.81
2023-01-17T13:09:23.694Z,80.58
2023-01-17T13:14:28.826Z,80.72
2023-01-17T13:19:47.911Z,80.82
2023-01-17T13:25:12.487Z,81.05
2023-01-17T13:30:45.535Z,81.03
2023-01-17T13:36:21.400Z,80.84
2023-01-17T13:41:49.027Z,81.33
2023-01-17T13:47:29.228Z,80.94
2023-01-17T13:52:37.399Z,80.97
2023-01-17T13:57:43.961Z,80.92
2023-01-17T14:02:52.651Z,81.10
2023-01-17T14:08:14.635Z,81.48
2023-01-17T14:13:40.019Z,81.29
2023-01-17T14:18:46.390Z,81.01
2023-01-17T14:23:58.646Z,81.35
2023-01-17T14:29:41.144Z,80.97
2023-01-17T14:34:50.097Z,81.23
2023-01-17T14:39:57.282Z,81.26
2023-01-17T14:45:10.648Z,81.35
2023-01-17T14:50:24.678Z,81.19
2023-01-17T14:55:29.983Z,81.10
2023-01-17T15:00:42.084Z,81.16
2023-01-17T15:05:50.823Z,81.16
2023-01-17T15:11:11.222Z,81.15
2023-01-17T15:16:27.789Z,80.92
2023-01-17T15:21:44.274Z,81.16
2023-01-17T15:26:49.728Z,80.91
2023-01-17T15:31:58.945Z,81.20
2023-01-17T15:37:09.761Z,81.42
2023-01-17T15:42:27.054Z,81.12
2023-01-17T15:47:36.045Z,80.99
2023-01-17T15:52:49.959Z,81.47
2023-01-17T15:57:55.050Z,81.23
2023-01-17T16:03:02.858Z,81.80
2023-01-17T16:08:08.075Z,80.92
2023-01-17T16:13:14.272Z,81.27
2023-01-17T16:18:26.937Z,81.26
2023-01-17T16:23:34.860Z,81.55
2023-01-17T16:28:39.903Z,81.63
2023-01-17T16:33:44.004Z,81.14
2023-01-17T16:38:53.201Z,81.61
2023-01-17T16:44:05.919Z,81.44
2023-01-17T16:49:13.933Z,80.94
2023-01-17T16:54:19.883Z,81.69
2023-01-17T16:59:25.071Z,81.38
2023-01-17T17:04:30.135Z,81.34
2023-01-17T17:09:35.239Z,81.10
2023-01-17T17:14:40.279Z,81.22
2023-01-17T17:19:44.262Z,81.13
2023-01-17T17:24:51.307Z,81.11
2023-01-17T17:29:55.409Z,81.38
2023-01-17T17:35:00.824Z,81.11
2023-01-17T17:40:06.039Z,81.44
2023-01-17T17:45:11.276Z,81.46
2023-01-17T17:50:16.483Z,81.66
2023-01-17T17:55:21.946Z,81.72
2023-01-17T18:00:25.723Z,81.46
2023-01-17T18:05:31.215Z,81.44
2023-01-17T18:10:34.989Z,81.74
2023-01-17T18:15:39.087Z,81.41
2023-01-17T18:20:45.744Z,81.21
2023-01-17T18:25:49.934Z,81.10
2023-01-17T18:30:54.584Z,81.17
2023-01-17T18:36:00.217Z,81.57
2023-01-17T18:41:12.889Z,81.48
2023-01-17T18:46:18.074Z,81.25
2023-01-17T18:51:25.068Z,81.19
2023-01-17T18:56:32.960Z,80.96
2023-01-17T19:01:37.721Z,80.52
2023-01-17T19:06:45.177Z,80.37
2023-01-17T19:11:49.139Z,80.74
2023-01-17T19:16:52.974Z,80.29
2023-01-17T19:22:00.948Z,80.31
2023-01-17T19:27:07.985Z,79.92
2023-01-17T19:32:15.076Z,80.31
2023-01-17T19:37:19.940Z,80.19
2023-01-17T19:42:23.696Z,79.92
2023-01-17T19:47:28.986Z,79.57
2023-01-17T19:52:33.675Z,79.53
2023-01-17T19:57:41.381Z,79.52
2023-01-17T20:02:45.183Z,79.24
2023-01-17T20:07:50.102Z,78.85
2023-01-17T20:12:53.851Z,78.63
2023-01-17T20:17:59.066Z,78.59
2023-01-17T20:23:06.306Z,79.06
2023-01-17T20:28:11.817Z,79.00
2023-01-17T20:33:18.621Z,78.75
2023-01-17T20:38:28.341Z,78.52
2023-01-17T20:43:35.538Z,78.36
2023-01-17T20:49:02.715Z,78.37
2023-01-17T20:54:11.994Z,78.82
2023-01-17T20:59:18.869Z,78.73
2023-01-17T21:04:26.406Z,78.74
2023-01-17T21:09:34.943Z,79.08
2023-01-17T21:14:42.298Z,78.45
2023-01-17T21:19:46.828Z,78.47
2023-01-17T21:24:51.494Z,78.62
2023-01-17T21:29:56.437Z,78.43
2023-01-17T21:35:02.572Z,78.40
2023-01-17T21:40:09.029Z,78.64
2023-01-17T21:45:13.963Z,78.49
2023-01-17T21:50:32.472Z,78.90
2023-01-17T21:55:58.125Z,79.06
2023-01-17T22:01:21.039Z,78.94
2023-01-17T22:06:29.140Z,78.64
2023-01-17T22:11:37.726Z,78.85
2023-01-17T22:16:43.751Z,78.54
2023-01-17T22:21:47.641Z,78.74
2023-01-17T22:26:53.817Z,78.69
2023-01-17T22:31:59.029Z,78.42
2023-01-17T22:37:06.904Z,78.79
2023-01-17T22:42:15.766Z,78.49
2023-01-17T22:47:19.706Z,78.35
2023-01-17T22:52:32.504Z,78.54
2023-01-17T22:57:39.692Z,78.34
2023-01-17T23:02:43.736Z,78.70
2023-01-17T23:07:53.546Z,78.35
2023-01-17T23:13:43.518Z,78.39
2023-01-17T23:19:09.296Z,78.61
2023-01-17T23:24:18.282Z,78.27
2023-01-17T23:29:24.077Z,78.68
2023-01-17T23:34:27.950Z,78.44
2023-01-17T23:39:36.591Z,78.80
2023-01-17T23:44:41.206Z,78.40
2023-01-17T23:49:49.124Z,78.32
2023-01-17T23:54:52.952Z,78.53
